sensor_id;sensor_type;location;lat;lon;timestamp;temperature;humidity
37274;DHT22;23161;51.250;5.554;2022-10-31T00:02:25;12.60;99.90
37274;DHT22;23161;51.250;5.554;2022-10-31T00:04:50;12.70;99.90
37274;DHT22;23161;51.250;5.554;2022-10-31T00:07:16;12.60;99.90
37274;DHT22;23161;51.250;5.554;2022-10-31T00:09:42;12.70;99.90
37274;DHT22;23161;51.250;5.554;2022-10-31T00:12:08;12.70;99.90
37274;DHT22;23161;51.250;5.554;2022-10-31T00:14:34;12.70;99.90
37274;DHT22;23161;51.250;5.554;2022-10-31T00:16:59;12.70;99.90
37274;DHT22;23161;51.250;5.554;2022-10-31T00:19:25;12.80;99.90
37274;DHT22;23161;51.250;5.554;2022-10-31T00:21:54;12.80;99.90
37274;DHT22;23161;51.250;5.554;2022-10-31T00:24:19;12.80;99.90
37274;DHT22;23161;51.250;5.554;2022-10-31T00:26:45;12.90;99.90
37274;DHT22;23161;51.250;5.554;2022-10-31T00:29:11;12.90;99.90
37274;DHT22;23161;51.250;5.554;2022-10-31T00:31:38;12.80;99.90
37274;DHT22;23161;51.250;5.554;2022-10-31T00:34:04;12.80;99.90
37274;DHT22;23161;51.250;5.554;2022-10-31T00:36:30;12.90;99.90
37274;DHT22;23161;51.250;5.554;2022-10-31T00:38:57;12.90;99.90
37274;DHT22;23161;51.250;5.554;2022-10-31T00:41:23;13.00;99.90
37274;DHT22;23161;51.250;5.554;2022-10-31T00:43:50;12.90;99.90
37274;DHT22;23161;51.250;5.554;2022-10-31T00:46:16;12.80;99.90
37274;DHT22;23161;51.250;5.554;2022-10-31T00:48:42;12.70;99.90
37274;DHT22;23161;51.250;5.554;2022-10-31T00:51:08;12.70;99.90
37274;DHT22;23161;51.250;5.554;2022-10-31T00:53:34;12.70;99.90
37274;DHT22;23161;51.250;5.554;2022-10-31T00:56:00;12.70;99.90
37274;DHT22;23161;51.250;5.554;2022-10-31T00:58:26;12.70;99.90
37274;DHT22;23161;51.250;5.554;2022-10-31T01:00:52;12.60;99.90
37274;DHT22;23161;51.250;5.554;2022-10-31T01:03:25;12.70;99.90
37274;DHT22;23161;51.250;5.554;2022-10-31T01:08:26;12.60;99.90
37274;DHT22;23161;51.250;5.554;2022-10-31T01:11:04;12.70;99.90
37274;DHT22;23161;51.250;5.554;2022-10-31T01:13:32;12.60;99.90
37274;DHT22;23161;51.250;5.554;2022-10-31T01:15:59;12.70;99.90
37274;DHT22;23161;51.250;5.554;2022-10-31T01:18:26;12.70;99.90
37274;DHT22;23161;51.250;5.554;2022-10-31T01:23:27;12.80;99.90
37274;DHT22;23161;51.250;5.554;2022-10-31T01:26:04;12.70;99.90
37274;DHT22;23161;51.250;5.554;2022-10-31T01:28:32;12.70;99.90
37274;DHT22;23161;51.250;5.554;2022-10-31T01:31:07;12.60;99.90
37274;DHT22;23161;51.250;5.554;2022-10-31T01:33:34;12.60;99.90
37274;DHT22;23161;51.250;5.554;2022-10-31T01:36:00;12.60;99.90
37274;DHT22;23161;51.250;5.554;2022-10-31T01:38:26;12.60;99.90
37274;DHT22;23161;51.250;5.554;2022-10-31T01:40:52;12.50;99.90
37274;DHT22;23161;51.250;5.554;2022-10-31T01:43:19;12.50;99.90
37274;DHT22;23161;51.250;5.554;2022-10-31T01:45:51;12.50;99.90
37274;DHT22;23161;51.250;5.554;2022-10-31T01:48:19;12.40;99.90
37274;DHT22;23161;51.250;5.554;2022-10-31T01:50:47;12.40;99.90
37274;DHT22;23161;51.250;5.554;2022-10-31T01:53:15;12.40;99.90
37274;DHT22;23161;51.250;5.554;2022-10-31T01:55:44;12.50;99.90
37274;DHT22;23161;51.250;5.554;2022-10-31T01:58:21;12.50;99.90
37274;DHT22;23161;51.250;5.554;2022-10-31T02:00:51;12.40;99.90
37274;DHT22;23161;51.250;5.554;2022-10-31T02:03:20;12.30;99.90
37274;DHT22;23161;51.250;5.554;2022-10-31T02:05:47;12.30;99.90
37274;DHT22;23161;51.250;5.554;2022-10-31T02:08:27;12.20;99.90
37274;DHT22;23161;51.250;5.554;2022-10-31T02:10:54;12.10;99.90
37274;DHT22;23161;51.250;5.554;2022-10-31T02:13:20;12.10;99.90
37274;DHT22;23161;51.250;5.554;2022-10-31T02:15:52;12.10;99.90
37274;DHT22;23161;51.250;5.554;2022-10-31T02:18:19;12.10;99.90
37274;DHT22;23161;51.250;5.554;2022-10-31T02:34:38;12.00;99.90
37274;DHT22;23161;51.250;5.554;2022-10-31T02:37:11;11.90;99.90
37274;DHT22;23161;51.250;5.554;2022-10-31T02:43:02;11.90;99.90
37274;DHT22;23161;51.250;5.554;2022-10-31T02:45:38;11.80;99.90
37274;DHT22;23161;51.250;5.554;2022-10-31T02:48:18;11.90;99.90
37274;DHT22;23161;51.250;5.554;2022-10-31T02:50:52;11.90;99.90
37274;DHT22;23161;51.250;5.554;2022-10-31T02:53:19;11.90;99.90
37274;DHT22;23161;51.250;5.554;2022-10-31T02:55:54;12.00;99.90
37274;DHT22;23161;51.250;5.554;2022-10-31T02:58:25;11.90;99.90
37274;DHT22;23161;51.250;5.554;2022-10-31T03:04:00;12.00;99.90
37274;DHT22;23161;51.250;5.554;2022-10-31T03:11:48;12.10;99.90
37274;DHT22;23161;51.250;5.554;2022-10-31T03:14:34;12.00;99.90
37274;DHT22;23161;51.250;5.554;2022-10-31T03:17:05;12.00;99.90
37274;DHT22;23161;51.250;5.554;2022-10-31T03:19:36;11.90;99.90
37274;DHT22;23161;51.250;5.554;2022-10-31T03:22:10;11.90;99.90
37274;DHT22;23161;51.250;5.554;2022-10-31T03:24:40;11.90;99.90
37274;DHT22;23161;51.250;5.554;2022-10-31T03:27:09;11.80;99.90
37274;DHT22;23161;51.250;5.554;2022-10-31T03:29:38;11.80;99.90
37274;DHT22;23161;51.250;5.554;2022-10-31T03:32:06;11.70;99.90
37274;DHT22;23161;51.250;5.554;2022-10-31T03:34:35;11.70;99.90
37274;DHT22;23161;51.250;5.554;2022-10-31T03:37:04;11.70;99.90
37274;DHT22;23161;51.250;5.554;2022-10-31T03:39:31;11.60;99.90
37274;DHT22;23161;51.250;5.554;2022-10-31T03:42:14;11.50;99.90
37274;DHT22;23161;51.250;5.554;2022-10-31T03:44:49;11.40;99.90
37274;DHT22;23161;51.250;5.554;2022-10-31T03:47:18;11.30;99.90
37274;DHT22;23161;51.250;5.554;2022-10-31T03:49:47;11.30;99.90
37274;DHT22;23161;51.250;5.554;2022-10-31T03:55:07;11.30;99.90
37274;DHT22;23161;51.250;5.554;2022-10-31T03:57:51;11.20;99.90
37274;DHT22;23161;51.250;5.554;2022-10-31T04:00:18;11.20;99.90
37274;DHT22;23161;51.250;5.554;2022-10-31T04:03:15;11.20;99.90
37274;DHT22;23161;51.250;5.554;2022-10-31T04:05:45;11.10;99.90
37274;DHT22;23161;51.250;5.554;2022-10-31T04:08:17;11.10;99.90
37274;DHT22;23161;51.250;5.554;2022-10-31T04:10:48;11.10;99.90
37274;DHT22;23161;51.250;5.554;2022-10-31T04:13:19;11.10;99.90
37274;DHT22;23161;51.250;5.554;2022-10-31T04:15:56;11.00;99.90
37274;DHT22;23161;51.250;5.554;2022-10-31T04:18:23;11.00;99.90
37274;DHT22;23161;51.250;5.554;2022-10-31T04:20:48;10.90;99.90
37274;DHT22;23161;51.250;5.554;2022-10-31T04:23:22;10.90;99.90
37274;DHT22;23161;51.250;5.554;2022-10-31T04:25:48;11.00;99.90
37274;DHT22;23161;51.250;5.554;2022-10-31T04:28:16;11.00;99.90
37274;DHT22;23161;51.250;5.554;2022-10-31T04:30:42;11.10;99.90
37274;DHT22;23161;51.250;5.554;2022-10-31T04:33:08;11.10;99.90
37274;DHT22;23161;51.250;5.554;2022-10-31T04:35:34;11.20;99.90
37274;DHT22;23161;51.250;5.554;2022-10-31T04:38:00;11.20;99.90
37274;DHT22;23161;51.250;5.554;2022-10-31T04:40:26;11.20;99.90
37274;DHT22;23161;51.250;5.554;2022-10-31T04:43:15;11.30;99.90
37274;DHT22;23161;51.250;5.554;2022-10-31T04:45:43;11.30;99.90
37274;DHT22;23161;51.250;5.554;2022-10-31T04:48:09;11.40;99.90
37274;DHT22;23161;51.250;5.554;2022-10-31T04:50:36;11.40;99.90
37274;DHT22;23161;51.250;5.554;2022-10-31T04:53:01;11.30;99.90
37274;DHT22;23161;51.250;5.554;2022-10-31T04:55:32;11.20;99.90
37274;DHT22;23161;51.250;5.554;2022-10-31T04:58:19;11.20;99.90
37274;DHT22;23161;51.250;5.554;2022-10-31T05:00:45;11.20;99.90
37274;DHT22;23161;51.250;5.554;2022-10-31T05:03:11;11.10;99.90
37274;DHT22;23161;51.250;5.554;2022-10-31T05:05:37;11.10;99.90
37274;DHT22;23161;51.250;5.554;2022-10-31T05:08:03;11.00;99.90
37274;DHT22;23161;51.250;5.554;2022-10-31T05:10:31;10.90;99.90
37274;DHT22;23161;51.250;5.554;2022-10-31T05:13:01;10.90;99.90
37274;DHT22;23161;51.250;5.554;2022-10-31T05:15:56;10.80;99.90
37274;DHT22;23161;51.250;5.554;2022-10-31T05:18:41;10.80;99.90
37274;DHT22;23161;51.250;5.554;2022-10-31T05:21:13;10.80;99.90
37274;DHT22;23161;51.250;5.554;2022-10-31T05:23:47;10.70;99.90
37274;DHT22;23161;51.250;5.554;2022-10-31T05:26:13;10.70;99.90
37274;DHT22;23161;51.250;5.554;2022-10-31T05:28:39;10.60;99.90
37274;DHT22;23161;51.250;5.554;2022-10-31T05:31:05;10.60;99.90
37274;DHT22;23161;51.250;5.554;2022-10-31T05:33:31;10.50;99.90
37274;DHT22;23161;51.250;5.554;2022-10-31T05:36:16;10.50;99.90
37274;DHT22;23161;51.250;5.554;2022-10-31T05:39:02;10.40;99.90
37274;DHT22;23161;51.250;5.554;2022-10-31T05:41:48;10.40;99.90
37274;DHT22;23161;51.250;5.554;2022-10-31T05:44:19;10.30;99.90
37274;DHT22;23161;51.250;5.554;2022-10-31T05:47:05;10.40;99.90
37274;DHT22;23161;51.250;5.554;2022-10-31T05:49:50;10.40;99.90
37274;DHT22;23161;51.250;5.554;2022-10-31T05:52:34;10.40;99.90
37274;DHT22;23161;51.250;5.554;2022-10-31T05:55:07;10.40;99.90
37274;DHT22;23161;51.250;5.554;2022-10-31T05:57:34;10.40;99.90
37274;DHT22;23161;51.250;5.554;2022-10-31T06:00:00;10.40;99.90
37274;DHT22;23161;51.250;5.554;2022-10-31T06:02:26;10.30;99.90
37274;DHT22;23161;51.250;5.554;2022-10-31T06:05:16;10.30;99.90
37274;DHT22;23161;51.250;5.554;2022-10-31T06:07:42;10.30;99.90
37274;DHT22;23161;51.250;5.554;2022-10-31T06:10:08;10.30;99.90
37274;DHT22;23161;51.250;5.554;2022-10-31T06:12:35;10.40;99.90
37274;DHT22;23161;51.250;5.554;2022-10-31T06:15:19;10.30;99.90
37274;DHT22;23161;51.250;5.554;2022-10-31T06:17:46;10.30;99.90
37274;DHT22;23161;51.250;5.554;2022-10-31T06:20:24;10.20;99.90
37274;DHT22;23161;51.250;5.554;2022-10-31T06:23:03;10.20;99.90
37274;DHT22;23161;51.250;5.554;2022-10-31T06:25:31;10.20;99.90
37274;DHT22;23161;51.250;5.554;2022-10-31T06:27:58;10.10;99.90
37274;DHT22;23161;51.250;5.554;2022-10-31T06:30:31;10.00;99.90
37274;DHT22;23161;51.250;5.554;2022-10-31T06:33:06;10.10;99.90
37274;DHT22;23161;51.250;5.554;2022-10-31T06:35:35;10.20;99.90
37274;DHT22;23161;51.250;5.554;2022-10-31T06:38:00;10.20;99.90
37274;DHT22;23161;51.250;5.554;2022-10-31T06:40:36;10.20;99.90
37274;DHT22;23161;51.250;5.554;2022-10-31T06:43:15;10.20;99.90
37274;DHT22;23161;51.250;5.554;2022-10-31T06:45:41;10.20;99.90
37274;DHT22;23161;51.250;5.554;2022-10-31T06:48:16;10.20;99.90
37274;DHT22;23161;51.250;5.554;2022-10-31T06:51:02;10.20;99.90
37274;DHT22;23161;51.250;5.554;2022-10-31T06:53:28;10.30;99.90
37274;DHT22;23161;51.250;5.554;2022-10-31T06:55:57;10.30;99.90
37274;DHT22;23161;51.250;5.554;2022-10-31T06:58:23;10.30;99.90
37274;DHT22;23161;51.250;5.554;2022-10-31T07:00:50;10.30;99.90
37274;DHT22;23161;51.250;5.554;2022-10-31T07:03:16;10.30;99.90
37274;DHT22;23161;51.250;5.554;2022-10-31T07:05:43;10.40;99.90
37274;DHT22;23161;51.250;5.554;2022-10-31T07:08:11;10.40;99.90
37274;DHT22;23161;51.250;5.554;2022-10-31T07:10:38;10.50;99.90
37274;DHT22;23161;51.250;5.554;2022-10-31T07:13:06;10.50;99.90
37274;DHT22;23161;51.250;5.554;2022-10-31T07:15:37;10.50;99.90
37274;DHT22;23161;51.250;5.554;2022-10-31T07:18:05;10.60;99.90
37274;DHT22;23161;51.250;5.554;2022-10-31T07:20:33;10.70;99.90
37274;DHT22;23161;51.250;5.554;2022-10-31T07:22:59;10.70;99.90
37274;DHT22;23161;51.250;5.554;2022-10-31T07:25:26;10.80;99.90
37274;DHT22;23161;51.250;5.554;2022-10-31T07:28:33;10.90;99.90
37274;DHT22;23161;51.250;5.554;2022-10-31T07:31:00;11.00;99.90
37274;DHT22;23161;51.250;5.554;2022-10-31T07:33:26;11.20;99.90
37274;DHT22;23161;51.250;5.554;2022-10-31T07:36:27;11.30;99.90
37274;DHT22;23161;51.250;5.554;2022-10-31T07:38:57;11.30;99.90
37274;DHT22;23161;51.250;5.554;2022-10-31T07:41:24;11.50;99.90
37274;DHT22;23161;51.250;5.554;2022-10-31T07:43:50;11.60;99.90
37274;DHT22;23161;51.250;5.554;2022-10-31T07:46:16;11.80;99.90
37274;DHT22;23161;51.250;5.554;2022-10-31T07:49:14;12.00;99.90
37274;DHT22;23161;51.250;5.554;2022-10-31T07:52:02;12.20;99.90
37274;DHT22;23161;51.250;5.554;2022-10-31T07:54:46;12.40;99.90
37274;DHT22;23161;51.250;5.554;2022-10-31T07:57:12;12.50;99.90
37274;DHT22;23161;51.250;5.554;2022-10-31T07:59:38;12.70;99.90
37274;DHT22;23161;51.250;5.554;2022-10-31T08:02:08;13.30;99.90
37274;DHT22;23161;51.250;5.554;2022-10-31T08:04:46;13.80;99.90
37274;DHT22;23161;51.250;5.554;2022-10-31T08:07:44;13.80;99.90
37274;DHT22;23161;51.250;5.554;2022-10-31T08:10:16;13.40;99.90
37274;DHT22;23161;51.250;5.554;2022-10-31T08:12:42;13.20;99.90
37274;DHT22;23161;51.250;5.554;2022-10-31T08:15:08;13.10;99.90
37274;DHT22;23161;51.250;5.554;2022-10-31T08:17:35;13.00;99.90
37274;DHT22;23161;51.250;5.554;2022-10-31T08:20:02;12.80;99.90
37274;DHT22;23161;51.250;5.554;2022-10-31T08:22:34;12.70;99.90
37274;DHT22;23161;51.250;5.554;2022-10-31T08:25:00;12.80;99.90
37274;DHT22;23161;51.250;5.554;2022-10-31T08:27:27;12.90;99.90
37274;DHT22;23161;51.250;5.554;2022-10-31T08:29:55;13.00;99.90
37274;DHT22;23161;51.250;5.554;2022-10-31T08:32:21;13.10;99.90
37274;DHT22;23161;51.250;5.554;2022-10-31T08:35:06;13.20;99.90
37274;DHT22;23161;51.250;5.554;2022-10-31T08:37:54;13.30;99.90
37274;DHT22;23161;51.250;5.554;2022-10-31T08:40:24;13.40;99.90
37274;DHT22;23161;51.250;5.554;2022-10-31T08:43:05;13.50;99.90
37274;DHT22;23161;51.250;5.554;2022-10-31T08:45:33;13.60;99.90
37274;DHT22;23161;51.250;5.554;2022-10-31T08:48:01;13.70;99.90
37274;DHT22;23161;51.250;5.554;2022-10-31T08:50:29;14.10;99.90
37274;DHT22;23161;51.250;5.554;2022-10-31T08:53:13;14.80;99.90
37274;DHT22;23161;51.250;5.554;2022-10-31T08:55:41;15.30;99.90
37274;DHT22;23161;51.250;5.554;2022-10-31T08:58:21;15.40;99.90
37274;DHT22;23161;51.250;5.554;2022-10-31T09:00:52;15.30;99.90
37274;DHT22;23161;51.250;5.554;2022-10-31T09:03:24;15.20;99.90
37274;DHT22;23161;51.250;5.554;2022-10-31T09:05:55;15.20;99.90
37274;DHT22;23161;51.250;5.554;2022-10-31T09:08:22;15.40;99.90
37274;DHT22;23161;51.250;5.554;2022-10-31T09:10:47;15.60;99.90
37274;DHT22;23161;51.250;5.554;2022-10-31T09:13:19;15.80;99.90
37274;DHT22;23161;51.250;5.554;2022-10-31T09:16:21;16.20;99.90
37274;DHT22;23161;51.250;5.554;2022-10-31T09:18:46;16.70;99.90
37274;DHT22;23161;51.250;5.554;2022-10-31T09:21:15;16.80;99.90
37274;DHT22;23161;51.250;5.554;2022-10-31T09:23:43;16.90;99.90
37274;DHT22;23161;51.250;5.554;2022-10-31T09:26:10;16.80;99.90
37274;DHT22;23161;51.250;5.554;2022-10-31T09:28:37;16.80;99.90
37274;DHT22;23161;51.250;5.554;2022-10-31T09:31:09;16.50;99.90
37274;DHT22;23161;51.250;5.554;2022-10-31T09:33:53;16.30;99.90
37274;DHT22;23161;51.250;5.554;2022-10-31T09:36:39;16.10;99.90
37274;DHT22;23161;51.250;5.554;2022-10-31T09:39:10;15.90;99.90
37274;DHT22;23161;51.250;5.554;2022-10-31T09:44:33;16.10;99.90
37274;DHT22;23161;51.250;5.554;2022-10-31T09:50:22;16.00;99.90
37274;DHT22;23161;51.250;5.554;2022-10-31T09:53:32;16.00;99.90
37274;DHT22;23161;51.250;5.554;2022-10-31T09:55:51;16.20;99.90
37274;DHT22;23161;51.250;5.554;2022-10-31T09:58:23;16.50;99.90
37274;DHT22;23161;51.250;5.554;2022-10-31T10:00:49;17.10;99.90
37274;DHT22;23161;51.250;5.554;2022-10-31T10:03:35;17.90;99.90
37274;DHT22;23161;51.250;5.554;2022-10-31T10:06:27;18.40;99.90
37274;DHT22;23161;51.250;5.554;2022-10-31T10:09:12;19.40;99.90
37274;DHT22;23161;51.250;5.554;2022-10-31T10:12:23;20.10;99.90
37274;DHT22;23161;51.250;5.554;2022-10-31T10:25:40;18.70;99.90
37274;DHT22;23161;51.250;5.554;2022-10-31T10:28:17;18.60;99.90
37274;DHT22;23161;51.250;5.554;2022-10-31T10:33:21;18.10;99.90
37274;DHT22;23161;51.250;5.554;2022-10-31T10:36:05;18.20;99.90
37274;DHT22;23161;51.250;5.554;2022-10-31T10:38:48;18.30;99.90
37274;DHT22;23161;51.250;5.554;2022-10-31T10:41:18;18.40;99.90
37274;DHT22;23161;51.250;5.554;2022-10-31T10:43:45;18.30;99.90
37274;DHT22;23161;51.250;5.554;2022-10-31T10:46:18;18.20;99.90
37274;DHT22;23161;51.250;5.554;2022-10-31T10:52:17;18.30;99.90
37274;DHT22;23161;51.250;5.554;2022-10-31T10:57:03;18.30;99.90
37274;DHT22;23161;51.250;5.554;2022-10-31T10:59:34;18.10;99.90
37274;DHT22;23161;51.250;5.554;2022-10-31T11:02:00;18.10;99.90
37274;DHT22;23161;51.250;5.554;2022-10-31T11:04:30;18.10;99.90
37274;DHT22;23161;51.250;5.554;2022-10-31T11:07:04;18.10;99.90
37274;DHT22;23161;51.250;5.554;2022-10-31T11:09:31;18.00;99.90
37274;DHT22;23161;51.250;5.554;2022-10-31T11:11:58;18.20;99.90
37274;DHT22;23161;51.250;5.554;2022-10-31T11:14:24;18.30;99.90
37274;DHT22;23161;51.250;5.554;2022-10-31T11:16:56;18.20;99.90
37274;DHT22;23161;51.250;5.554;2022-10-31T11:19:33;18.30;99.90
37274;DHT22;23161;51.250;5.554;2022-10-31T11:22:15;18.40;99.90
37274;DHT22;23161;51.250;5.554;2022-10-31T11:24:42;18.50;99.90
37274;DHT22;23161;51.250;5.554;2022-10-31T11:27:16;18.60;99.90
37274;DHT22;23161;51.250;5.554;2022-10-31T11:29:42;18.70;99.90
37274;DHT22;23161;51.250;5.554;2022-10-31T11:32:19;18.70;99.90
37274;DHT22;23161;51.250;5.554;2022-10-31T11:34:51;18.70;99.90
37274;DHT22;23161;51.250;5.554;2022-10-31T11:37:24;18.70;99.90
37274;DHT22;23161;51.250;5.554;2022-10-31T11:39:57;18.40;99.90
37274;DHT22;23161;51.250;5.554;2022-10-31T11:42:28;18.40;99.90
37274;DHT22;23161;51.250;5.554;2022-10-31T11:44:56;18.50;99.90
37274;DHT22;23161;51.250;5.554;2022-10-31T11:47:29;18.40;99.90
37274;DHT22;23161;51.250;5.554;2022-10-31T11:49:56;18.50;99.90
37274;DHT22;23161;51.250;5.554;2022-10-31T11:52:28;18.60;99.90
37274;DHT22;23161;51.250;5.554;2022-10-31T11:57:31;18.80;99.90
37274;DHT22;23161;51.250;5.554;2022-10-31T12:00:00;18.90;99.90
37274;DHT22;23161;51.250;5.554;2022-10-31T12:02:27;18.80;99.90
37274;DHT22;23161;51.250;5.554;2022-10-31T12:05:04;18.80;99.90
37274;DHT22;23161;51.250;5.554;2022-10-31T12:07:32;18.90;99.90
37274;DHT22;23161;51.250;5.554;2022-10-31T12:09:57;18.90;99.90
37274;DHT22;23161;51.250;5.554;2022-10-31T12:12:36;19.00;99.90
37274;DHT22;23161;51.250;5.554;2022-10-31T12:25:45;18.70;99.90
37274;DHT22;23161;51.250;5.554;2022-10-31T12:31:14;18.30;99.90
37274;DHT22;23161;51.250;5.554;2022-10-31T12:34:26;18.20;99.90
37274;DHT22;23161;51.250;5.554;2022-10-31T12:37:15;17.90;99.90
37274;DHT22;23161;51.250;5.554;2022-10-31T12:39:54;17.90;99.90
37274;DHT22;23161;51.250;5.554;2022-10-31T12:53:44;17.90;99.90
37274;DHT22;23161;51.250;5.554;2022-10-31T13:02:22;17.90;99.90
37274;DHT22;23161;51.250;5.554;2022-10-31T13:05:17;17.90;99.90
37274;DHT22;23161;51.250;5.554;2022-10-31T13:10:50;18.00;99.90
37274;DHT22;23161;51.250;5.554;2022-10-31T13:13:40;17.90;99.90
37274;DHT22;23161;51.250;5.554;2022-10-31T13:16:19;17.90;99.90
37274;DHT22;23161;51.250;5.554;2022-10-31T13:18:50;17.90;99.90
37274;DHT22;23161;51.250;5.554;2022-10-31T13:21:27;17.90;99.90
37274;DHT22;23161;51.250;5.554;2022-10-31T13:23:59;17.90;99.90
37274;DHT22;23161;51.250;5.554;2022-10-31T13:26:55;18.10;99.90
37274;DHT22;23161;51.250;5.554;2022-10-31T13:29:33;18.10;99.90
37274;DHT22;23161;51.250;5.554;2022-10-31T13:32:06;18.10;99.90
37274;DHT22;23161;51.250;5.554;2022-10-31T13:34:39;18.10;99.90
37274;DHT22;23161;51.250;5.554;2022-10-31T13:40:07;17.90;99.90
37274;DHT22;23161;51.250;5.554;2022-10-31T13:45:30;18.00;99.90
37274;DHT22;23161;51.250;5.554;2022-10-31T13:47:58;18.00;99.90
37274;DHT22;23161;51.250;5.554;2022-10-31T13:50:30;17.90;99.90
37274;DHT22;23161;51.250;5.554;2022-10-31T13:53:19;17.90;99.90
37274;DHT22;23161;51.250;5.554;2022-10-31T13:55:48;17.90;99.90
37274;DHT22;23161;51.250;5.554;2022-10-31T13:58:28;17.90;99.90
37274;DHT22;23161;51.250;5.554;2022-10-31T14:01:16;18.00;99.90
37274;DHT22;23161;51.250;5.554;2022-10-31T14:03:45;18.00;99.90
37274;DHT22;23161;51.250;5.554;2022-10-31T14:06:12;18.10;99.90
37274;DHT22;23161;51.250;5.554;2022-10-31T14:08:48;18.10;99.90
37274;DHT22;23161;51.250;5.554;2022-10-31T14:11:26;18.20;99.90
37274;DHT22;23161;51.250;5.554;2022-10-31T14:13:54;18.20;99.90
37274;DHT22;23161;51.250;5.554;2022-10-31T14:16:25;18.20;99.90
37274;DHT22;23161;51.250;5.554;2022-10-31T14:19:04;18.20;99.90
37274;DHT22;23161;51.250;5.554;2022-10-31T14:21:41;18.10;99.90
37274;DHT22;23161;51.250;5.554;2022-10-31T14:26:55;18.00;99.90
37274;DHT22;23161;51.250;5.554;2022-10-31T14:29:22;18.00;99.90
37274;DHT22;23161;51.250;5.554;2022-10-31T14:34:41;17.90;99.90
37274;DHT22;23161;51.250;5.554;2022-10-31T14:37:14;17.90;99.90
37274;DHT22;23161;51.250;5.554;2022-10-31T14:50:57;18.00;99.90
37274;DHT22;23161;51.250;5.554;2022-10-31T14:53:28;18.00;99.90
37274;DHT22;23161;51.250;5.554;2022-10-31T14:55:56;17.90;99.90
37274;DHT22;23161;51.250;5.554;2022-10-31T14:58:45;17.80;99.90
37274;DHT22;23161;51.250;5.554;2022-10-31T15:01:34;17.80;99.90
37274;DHT22;23161;51.250;5.554;2022-10-31T15:06:44;17.80;99.90
37274;DHT22;23161;51.250;5.554;2022-10-31T15:09:24;17.70;99.90
37274;DHT22;23161;51.250;5.554;2022-10-31T15:11:50;17.70;99.90
37274;DHT22;23161;51.250;5.554;2022-10-31T15:14:23;17.70;99.90
37274;DHT22;23161;51.250;5.554;2022-10-31T15:16:50;17.60;99.90
37274;DHT22;23161;51.250;5.554;2022-10-31T15:19:23;17.60;99.90
37274;DHT22;23161;51.250;5.554;2022-10-31T15:21:51;17.50;99.90
37274;DHT22;23161;51.250;5.554;2022-10-31T15:24:17;17.50;99.90
37274;DHT22;23161;51.250;5.554;2022-10-31T15:26:54;17.40;99.90
37274;DHT22;23161;51.250;5.554;2022-10-31T15:29:24;17.40;99.90
37274;DHT22;23161;51.250;5.554;2022-10-31T15:36:52;17.20;99.90
37274;DHT22;23161;51.250;5.554;2022-10-31T15:39:18;17.10;99.90
37274;DHT22;23161;51.250;5.554;2022-10-31T15:41:53;17.10;99.90
37274;DHT22;23161;51.250;5.554;2022-10-31T15:44:25;17.00;99.90
37274;DHT22;23161;51.250;5.554;2022-10-31T15:47:32;17.00;99.90
37274;DHT22;23161;51.250;5.554;2022-10-31T15:49:52;16.90;99.90
37274;DHT22;23161;51.250;5.554;2022-10-31T15:54:54;16.80;99.90
37274;DHT22;23161;51.250;5.554;2022-10-31T15:57:22;16.70;99.90
37274;DHT22;23161;51.250;5.554;2022-10-31T15:59:49;16.60;99.90
37274;DHT22;23161;51.250;5.554;2022-10-31T16:02:20;16.50;99.90
37274;DHT22;23161;51.250;5.554;2022-10-31T16:04:53;16.40;99.90
37274;DHT22;23161;51.250;5.554;2022-10-31T16:07:19;16.40;99.90
37274;DHT22;23161;51.250;5.554;2022-10-31T16:09:50;16.40;99.90
37274;DHT22;23161;51.250;5.554;2022-10-31T16:12:16;16.30;99.90
37274;DHT22;23161;51.250;5.554;2022-10-31T16:14:43;16.30;99.90
37274;DHT22;23161;51.250;5.554;2022-10-31T16:17:14;16.30;99.90
37274;DHT22;23161;51.250;5.554;2022-10-31T16:19:51;16.30;99.90
37274;DHT22;23161;51.250;5.554;2022-10-31T16:22:30;16.30;99.90
37274;DHT22;23161;51.250;5.554;2022-10-31T16:25:01;16.20;99.90
37274;DHT22;23161;51.250;5.554;2022-10-31T16:27:30;16.10;99.90
37274;DHT22;23161;51.250;5.554;2022-10-31T16:29:57;16.20;99.90
37274;DHT22;23161;51.250;5.554;2022-10-31T16:32:52;16.20;99.90
37274;DHT22;23161;51.250;5.554;2022-10-31T16:37:51;16.20;99.90
37274;DHT22;23161;51.250;5.554;2022-10-31T16:40:17;16.20;99.90
37274;DHT22;23161;51.250;5.554;2022-10-31T16:42:45;16.20;99.90
37274;DHT22;23161;51.250;5.554;2022-10-31T16:45:17;16.10;99.90
37274;DHT22;23161;51.250;5.554;2022-10-31T16:47:44;16.00;99.90
37274;DHT22;23161;51.250;5.554;2022-10-31T16:50:16;16.10;99.90
37274;DHT22;23161;51.250;5.554;2022-10-31T16:52:42;16.00;99.90
37274;DHT22;23161;51.250;5.554;2022-10-31T16:55:13;15.90;99.90
37274;DHT22;23161;51.250;5.554;2022-10-31T16:57:41;15.90;99.90
37274;DHT22;23161;51.250;5.554;2022-10-31T17:00:17;15.80;99.90
37274;DHT22;23161;51.250;5.554;2022-10-31T17:02:48;15.80;99.90
37274;DHT22;23161;51.250;5.554;2022-10-31T17:05:16;15.70;99.90
37274;DHT22;23161;51.250;5.554;2022-10-31T17:07:44;15.60;99.90
37274;DHT22;23161;51.250;5.554;2022-10-31T17:10:11;15.50;99.90
37274;DHT22;23161;51.250;5.554;2022-10-31T17:12:41;15.50;99.90
37274;DHT22;23161;51.250;5.554;2022-10-31T17:15:16;15.50;99.90
37274;DHT22;23161;51.250;5.554;2022-10-31T17:17:43;15.40;99.90
37274;DHT22;23161;51.250;5.554;2022-10-31T17:20:27;15.30;99.90
37274;DHT22;23161;51.250;5.554;2022-10-31T17:22:54;15.20;99.90
37274;DHT22;23161;51.250;5.554;2022-10-31T17:25:23;15.20;99.90
37274;DHT22;23161;51.250;5.554;2022-10-31T17:27:49;15.10;99.90
37274;DHT22;23161;51.250;5.554;2022-10-31T17:30:16;15.00;99.90
37274;DHT22;23161;51.250;5.554;2022-10-31T17:32:43;15.00;99.90
37274;DHT22;23161;51.250;5.554;2022-10-31T17:35:10;14.90;99.90
37274;DHT22;23161;51.250;5.554;2022-10-31T17:37:37;14.70;99.90
37274;DHT22;23161;51.250;5.554;2022-10-31T17:40:03;14.80;99.90
37274;DHT22;23161;51.250;5.554;2022-10-31T17:42:29;14.70;99.90
37274;DHT22;23161;51.250;5.554;2022-10-31T17:44:55;14.70;99.90
37274;DHT22;23161;51.250;5.554;2022-10-31T17:47:21;14.70;99.90
37274;DHT22;23161;51.250;5.554;2022-10-31T17:49:47;14.70;99.90
37274;DHT22;23161;51.250;5.554;2022-10-31T17:52:12;14.60;99.90
37274;DHT22;23161;51.250;5.554;2022-10-31T17:54:38;14.50;99.90
37274;DHT22;23161;51.250;5.554;2022-10-31T17:57:04;14.40;99.90
37274;DHT22;23161;51.250;5.554;2022-10-31T17:59:30;14.40;99.90
37274;DHT22;23161;51.250;5.554;2022-10-31T18:01:56;14.30;99.90
37274;DHT22;23161;51.250;5.554;2022-10-31T18:06:48;14.30;99.90
37274;DHT22;23161;51.250;5.554;2022-10-31T18:09:15;14.20;99.90
37274;DHT22;23161;51.250;5.554;2022-10-31T18:11:41;14.30;99.90
37274;DHT22;23161;51.250;5.554;2022-10-31T18:14:08;14.30;99.90